Time;durP1;ratioP1;P1;durP2;ratioP2;P2;SDS_P1;SDS_P2;PMS_P1;PMS_P2;Temp;Humidity;BMP_temperature;BMP_pressure;BME280_temperature;BME280_humidity;BME280_pressure;Samples;Min_cycle;Max_cycle;Signal;HPM_P1;HPM_P2
2022/05/24 00:01:59;;;;;;;11.75;10.55;;;14.20;99.90;;;;;;5078531;28;20066;-44
2022/05/24 00:04:25;;;;;;;11.90;10.65;;;14.10;99.90;;;;;;5075308;28;20039;-48
2022/05/24 00:06:50;;;;;;;11.50;10.32;;;14.10;99.90;;;;;;5075767;28;20401;-44
2022/05/24 00:09:16;;;;;;;11.10;10.02;;;14.10;99.90;;;;;;5079181;28;20040;-45
2022/05/24 00:11:41;;;;;;;14.55;11.38;;;14.10;99.90;;;;;;5079215;28;20394;-46
2022/05/24 00:14:07;;;;;;;11.18;10.07;;;14.10;99.90;;;;;;5071680;28;20115;-44
2022/05/24 00:16:32;;;;;;;10.23;9.23;;;14.10;99.90;;;;;;5071611;28;20064;-46
2022/05/24 00:18:58;;;;;;;11.48;9.52;;;14.10;99.90;;;;;;5077382;28;20082;-45
2022/05/24 00:21:24;;;;;;;10.82;9.63;;;14.10;99.90;;;;;;5076847;28;20028;-47
2022/05/24 00:23:50;;;;;;;10.35;9.35;;;14.10;99.90;;;;;;5079233;28;20081;-46
2022/05/24 00:26:29;;;;;;;11.68;9.25;;;14.00;99.90;;;;;;5075348;28;20060;-46
2022/05/24 00:28:54;;;;;;;9.38;8.48;;;14.00;99.90;;;;;;5080639;28;20509;-45
2022/05/24 00:31:20;;;;;;;9.73;8.73;;;14.00;99.90;;;;;;5078819;28;20041;-47
2022/05/24 00:33:46;;;;;;;11.25;8.77;;;14.00;99.90;;;;;;5078972;28;20044;-45
2022/05/24 00:36:12;;;;;;;8.82;7.93;;;14.00;99.90;;;;;;5075303;28;20044;-45
2022/05/24 00:38:38;;;;;;;9.60;8.50;;;13.90;99.90;;;;;;5072229;28;20061;-44
2022/05/24 00:41:30;;;;;;;9.82;8.15;;;13.90;99.90;;;;;;5077179;28;20045;-49
2022/05/24 00:44:07;;;;;;;10.00;8.35;;;13.90;99.90;;;;;;5078178;28;20055;-45
2022/05/24 00:46:35;;;;;;;9.07;7.57;;;13.90;99.90;;;;;;5071742;28;20045;-49
2022/05/24 00:49:05;;;;;;;9.18;7.90;;;13.90;99.90;;;;;;5078590;28;20471;-45
2022/05/24 00:51:37;;;;;;;8.57;7.70;;;13.80;99.90;;;;;;5075066;28;20049;-47
2022/05/24 00:54:03;;;;;;;11.05;7.35;;;13.90;99.90;;;;;;5076395;28;20054;-48
2022/05/24 00:56:34;;;;;;;7.32;6.57;;;13.80;99.90;;;;;;5070370;28;20724;-46
2022/05/24 00:59:04;;;;;;;8.15;7.35;;;13.80;99.90;;;;;;5076898;28;20136;-47
2022/05/24 01:01:36;;;;;;;7.65;6.72;;;13.80;99.90;;;;;;5077991;28;20043;-46
2022/05/24 01:04:03;;;;;;;8.40;6.38;;;13.80;99.90;;;;;;5082536;28;20037;-49
2022/05/24 01:06:28;;;;;;;10.13;6.50;;;13.80;99.90;;;;;;5061287;28;20052;-46
2022/05/24 01:08:58;;;;;;;8.63;6.72;;;13.80;99.90;;;;;;5077163;28;20489;-45
2022/05/24 01:11:24;;;;;;;8.60;6.97;;;13.80;99.90;;;;;;5075114;28;20119;-46
2022/05/24 01:13:53;;;;;;;9.23;7.00;;;13.80;99.90;;;;;;5068045;28;20488;-45
2022/05/24 01:16:18;;;;;;;8.68;6.78;;;13.80;99.90;;;;;;5079034;28;20062;-45
2022/05/24 01:18:44;;;;;;;8.10;7.30;;;13.80;99.90;;;;;;5068188;28;20478;-44
2022/05/24 01:21:16;;;;;;;11.40;7.90;;;13.80;99.90;;;;;;5075996;28;20044;-47
2022/05/24 01:23:57;;;;;;;10.40;7.72;;;13.80;99.90;;;;;;5076894;28;20066;-48
2022/05/24 01:26:45;;;;;;;10.43;8.80;;;13.80;99.90;;;;;;5077681;28;20400;-44
2022/05/24 01:29:10;;;;;;;;;;;13.70;99.90;;;;;;5077887;28;20028;-45
2022/05/24 01:37:08;;;;;;;12.60;11.27;;;13.50;99.90;;;;;;5078338;28;20055;-44
2022/05/24 01:39:35;;;;;;;15.13;12.07;;;13.50;99.90;;;;;;5084718;28;20036;-47
2022/05/24 01:42:01;;;;;;;15.20;13.32;;;13.50;99.90;;;;;;5076410;28;20138;-46
2022/05/24 01:44:51;;;;;;;14.52;13.07;;;13.50;99.90;;;;;;5080226;28;20137;-46
2022/05/24 01:47:18;;;;;;;16.20;14.00;;;13.50;99.90;;;;;;5075244;28;20082;-44
2022/05/24 01:49:47;;;;;;;15.47;13.97;;;13.50;99.90;;;;;;5081130;28;20119;-45
2022/05/24 01:52:48;;;;;;;17.42;15.43;;;13.60;99.90;;;;;;5079282;28;20063;-45
2022/05/24 01:55:23;;;;;;;18.17;16.25;;;13.60;99.90;;;;;;5080623;28;20087;-45
2022/05/24 01:57:53;;;;;;;19.33;15.75;;;13.60;99.90;;;;;;5078517;28;20071;-47
2022/05/24 02:00:19;;;;;;;18.35;16.63;;;13.70;99.90;;;;;;5083842;28;20059;-44
2022/05/24 02:02:46;;;;;;;19.35;16.55;;;13.70;99.90;;;;;;5076977;28;20367;-44
2022/05/24 02:05:13;;;;;;;23.60;17.33;;;13.70;99.90;;;;;;5078576;28;20534;-45
2022/05/24 02:07:39;;;;;;;20.93;18.70;;;13.60;99.90;;;;;;5074767;28;20119;-49
2022/05/24 02:10:06;;;;;;;22.05;19.88;;;13.70;99.90;;;;;;5076060;28;20044;-45
2022/05/24 02:12:43;;;;;;;22.17;19.50;;;13.70;99.90;;;;;;5071967;28;20437;-44
2022/05/24 02:15:18;;;;;;;20.58;18.42;;;13.70;99.90;;;;;;5078186;28;20130;-47
2022/05/24 02:17:52;;;;;;;21.88;19.58;;;13.70;99.90;;;;;;5075767;28;20047;-48
2022/05/24 02:20:24;;;;;;;23.73;20.83;;;13.70;99.90;;;;;;5067331;28;20288;-45
2022/05/24 02:22:49;;;;;;;22.10;19.73;;;13.80;99.90;;;;;;5078492;28;20170;-44
2022/05/24 02:25:47;;;;;;;22.85;20.55;;;13.70;99.90;;;;;;5083250;28;20461;-45
2022/05/24 02:28:13;;;;;;;;;;;13.80;99.90;;;;;;5073994;28;20143;-47
2022/05/24 02:30:45;;;;;;;25.92;21.60;;;13.80;99.90;;;;;;5080887;28;19920;-45
2022/05/24 02:33:11;;;;;;;22.90;20.58;;;13.70;99.90;;;;;;5080738;28;20510;-48
2022/05/24 02:35:37;;;;;;;22.63;20.13;;;13.80;99.90;;;;;;5080669;28;20044;-45
2022/05/24 02:38:03;;;;;;;24.23;21.67;;;13.80;99.90;;;;;;5078545;28;20032;-45
2022/05/24 02:43:13;;;;;;;25.92;22.40;;;13.80;99.90;;;;;;5075399;28;20134;-45
2022/05/24 02:45:39;;;;;;;24.45;21.90;;;13.80;99.90;;;;;;5082794;28;20052;-46
2022/05/24 02:48:05;;;;;;;25.48;22.88;;;13.80;99.90;;;;;;5074963;28;20071;-45
2022/05/24 02:50:30;;;;;;;26.98;24.27;;;13.90;99.90;;;;;;5074958;28;20125;-47
2022/05/24 02:52:56;;;;;;;26.50;23.70;;;13.80;99.90;;;;;;5074780;28;20055;-45
2022/05/24 02:55:22;;;;;;;26.70;24.00;;;13.90;99.90;;;;;;5084707;28;20036;-46
2022/05/24 02:57:48;;;;;;;26.60;23.92;;;13.90;99.90;;;;;;5080900;28;22235;-46
2022/05/24 03:00:22;;;;;;;26.65;23.92;;;13.90;99.90;;;;;;5069253;28;20044;-45
2022/05/24 03:02:49;;;;;;;27.48;24.60;;;14.00;99.90;;;;;;5078992;28;20079;-45
2022/05/24 03:05:16;;;;;;;28.33;25.35;;;13.90;99.90;;;;;;5075275;28;20057;-46
2022/05/24 03:10:27;;;;;;;26.85;24.08;;;14.00;99.90;;;;;;5072903;28;20045;-45
2022/05/24 03:15:50;;;;;;;27.95;25.15;;;14.00;99.90;;;;;;5075863;28;20066;-45
2022/05/24 03:18:18;;;;;;;27.30;24.52;;;14.00;99.90;;;;;;5082102;28;20533;-45
2022/05/24 03:20:44;;;;;;;30.40;26.08;;;14.00;99.90;;;;;;5062766;28;20063;-45
2022/05/24 03:23:11;;;;;;;27.40;24.55;;;14.00;99.90;;;;;;5076700;28;20074;-45
2022/05/24 03:25:37;;;;;;;26.35;23.73;;;14.00;99.90;;;;;;5082583;28;20048;-46
2022/05/24 03:28:04;;;;;;;26.60;24.08;;;14.00;99.90;;;;;;5057726;28;20044;-46
2022/05/24 03:30:32;;;;;;;27.20;24.48;;;14.00;99.90;;;;;;5075962;28;20048;-45
2022/05/24 03:32:58;;;;;;;27.45;24.55;;;;;;;;;;5072750;28;20052;-45
2022/05/24 03:35:24;;;;;;;26.92;24.17;;;14.00;99.90;;;;;;5080442;28;20040;-47
2022/05/24 03:37:50;;;;;;;26.60;23.95;;;14.00;99.90;;;;;;5080023;28;20177;-45
2022/05/24 03:40:16;;;;;;;27.65;24.80;;;14.00;99.90;;;;;;5076263;28;20044;-46
2022/05/24 03:42:42;;;;;;;26.60;24.05;;;14.10;99.90;;;;;;5077374;28;20457;-47
2022/05/24 03:45:09;;;;;;;26.88;23.83;;;14.00;99.90;;;;;;5077563;28;20090;-46
2022/05/24 03:47:36;;;;;;;27.80;24.80;;;14.10;99.90;;;;;;5065361;28;20124;-46
2022/05/24 03:50:06;;;;;;;28.23;25.42;;;14.10;99.90;;;;;;5080977;28;20119;-46
2022/05/24 03:52:31;;;;;;;27.40;24.63;;;14.10;99.90;;;;;;5071118;28;20050;-46
2022/05/24 03:54:57;;;;;;;28.55;25.60;;;14.10;99.90;;;;;;5081606;28;20122;-46
2022/05/24 04:00:08;;;;;;;27.25;24.40;;;14.10;99.90;;;;;;5072806;28;20056;-49
2022/05/24 04:02:33;;;;;;;28.33;25.48;;;14.10;99.90;;;;;;5071039;28;20036;-48
2022/05/24 04:04:59;;;;;;;28.67;25.85;;;14.10;99.90;;;;;;5071131;28;20391;-49
2022/05/24 04:07:24;;;;;;;29.52;26.48;;;14.10;99.90;;;;;;5082722;28;20054;-46
2022/05/24 04:09:50;;;;;;;30.58;27.27;;;14.10;99.90;;;;;;5080425;28;20398;-45
2022/05/24 04:12:15;;;;;;;28.55;25.60;;;14.10;99.90;;;;;;5076587;28;20032;-46
2022/05/24 04:14:41;;;;;;;28.38;25.38;;;14.10;99.90;;;;;;5076399;28;20202;-45
2022/05/24 04:17:06;;;;;;;29.13;25.13;;;14.20;99.90;;;;;;5082268;28;20482;-46
2022/05/24 04:19:32;;;;;;;25.75;23.10;;;14.20;99.90;;;;;;5075232;28;20044;-47
2022/05/24 04:21:57;;;;;;;25.90;23.13;;;14.10;99.90;;;;;;5072418;28;20059;-47
2022/05/24 04:24:23;;;;;;;26.48;23.63;;;14.10;99.90;;;;;;5078607;28;20040;-47
2022/05/24 04:26:49;;;;;;;25.83;21.88;;;14.10;99.90;;;;;;5080709;28;20407;-46
2022/05/24 04:29:14;;;;;;;24.55;21.85;;;14.10;99.90;;;;;;5079510;28;20037;-45
2022/05/24 04:31:40;;;;;;;24.83;22.20;;;14.10;99.90;;;;;;5075863;28;20037;-46
2022/05/24 04:34:07;;;;;;;25.98;21.77;;;14.10;99.90;;;;;;5079614;28;20054;-46
2022/05/24 04:36:32;;;;;;;28.40;21.77;;;14.10;99.90;;;;;;5076152;28;20039;-46
2022/05/24 04:38:59;;;;;;;25.77;22.25;;;14.10;99.90;;;;;;5078874;28;20482;-46
2022/05/24 04:44:09;;;;;;;24.70;22.08;;;14.10;99.90;;;;;;5075311;28;20048;-47
2022/05/24 04:49:21;;;;;;;25.60;21.48;;;14.00;99.90;;;;;;5076983;28;20067;-48
2022/05/24 04:51:47;;;;;;;25.77;22.00;;;14.10;99.90;;;;;;5071883;28;20127;-46
2022/05/24 04:54:12;;;;;;;25.85;21.77;;;14.00;99.90;;;;;;5077432;28;20426;-47
2022/05/24 04:56:38;;;;;;;25.05;22.40;;;14.00;99.90;;;;;;5083860;28;20040;-50
2022/05/24 04:59:04;;;;;;;24.63;22.08;;;14.00;99.90;;;;;;5083678;28;20044;-46
2022/05/24 05:01:30;;;;;;;25.55;21.95;;;14.00;99.90;;;;;;5070393;28;20059;-46
2022/05/24 05:03:55;;;;;;;24.95;22.27;;;14.00;99.90;;;;;;5078264;28;20654;-46
2022/05/24 05:06:21;;;;;;;28.55;22.42;;;14.00;99.90;;;;;;5069683;28;20041;-46
2022/05/24 05:08:47;;;;;;;29.48;23.33;;;14.00;99.90;;;;;;5085530;28;20446;-46
2022/05/24 05:11:12;;;;;;;26.70;23.67;;;14.00;99.90;;;;;;5083909;28;20097;-46
2022/05/24 05:13:38;;;;;;;26.83;23.60;;;14.00;99.90;;;;;;5079761;28;20036;-46
2022/05/24 05:16:03;;;;;;;27.38;24.20;;;14.00;99.90;;;;;;5078027;28;20053;-46
2022/05/24 05:18:29;;;;;;;25.70;23.00;;;14.30;99.90;;;;;;5076528;28;20118;-46
2022/05/24 05:20:54;;;;;;;26.75;23.42;;;14.20;99.90;;;;;;5086556;28;20131;-47
2022/05/24 05:23:20;;;;;;;28.80;22.73;;;14.40;99.90;;;;;;5076988;28;20040;-47
2022/05/24 05:25:49;;;;;;;25.25;22.52;;;14.30;99.90;;;;;;5085154;28;20460;-47
2022/05/24 05:28:16;;;;;;;27.38;22.08;;;14.30;99.90;;;;;;5077921;28;20036;-48
2022/05/24 05:33:26;;;;;;;24.67;21.35;;;14.50;99.90;;;;;;5074022;28;20139;-47
2022/05/24 05:35:52;;;;;;;24.63;21.98;;;14.50;99.90;;;;;;5079908;28;20127;-45
2022/05/24 05:38:18;;;;;;;23.65;20.77;;;14.50;99.90;;;;;;5080640;28;20043;-45
2022/05/24 05:40:44;;;;;;;25.88;21.45;;;14.60;99.90;;;;;;5085575;28;20110;-50
2022/05/24 05:43:10;;;;;;;23.98;20.75;;;14.60;99.90;;;;;;5074617;28;20465;-46
2022/05/24 05:45:36;;;;;;;23.48;19.27;;;14.50;99.90;;;;;;5078269;28;20560;-46
2022/05/24 05:48:02;;;;;;;23.88;19.55;;;14.40;99.90;;;;;;5080027;28;20086;-46
2022/05/24 05:50:27;;;;;;;21.83;19.63;;;14.40;99.90;;;;;;5086336;28;20048;-47
2022/05/24 05:52:53;;;;;;;21.17;19.17;;;14.40;99.90;;;;;;5077294;28;20059;-45
2022/05/24 05:55:21;;;;;;;22.63;20.20;;;14.40;99.90;;;;;;5075122;28;20051;-50
2022/05/24 05:57:48;;;;;;;20.52;18.25;;;14.30;99.90;;;;;;5079973;28;20028;-49
2022/05/24 06:00:14;;;;;;;20.25;18.23;;;14.40;99.90;;;;;;5081131;28;20033;-46
2022/05/24 06:02:41;;;;;;;23.77;18.13;;;14.40;99.90;;;;;;5063791;28;20072;-47
2022/05/24 06:05:07;;;;;;;19.67;17.63;;;14.40;99.90;;;;;;5077218;28;20052;-47
2022/05/24 06:07:33;;;;;;;20.73;17.15;;;14.50;99.90;;;;;;5061480;28;20040;-45
2022/05/24 06:09:59;;;;;;;22.63;17.02;;;14.50;99.90;;;;;;5080502;28;20040;-46
2022/05/24 06:12:25;;;;;;;18.05;15.32;;;14.50;99.90;;;;;;5069012;28;20036;-46
2022/05/24 06:14:50;;;;;;;23.63;17.42;;;14.60;99.90;;;;;;5070177;28;20041;-46
2022/05/24 06:17:16;;;;;;;18.77;16.45;;;14.90;99.90;;;;;;5076340;28;20041;-46
2022/05/24 06:19:43;;;;;;;18.48;15.35;;;14.70;99.90;;;;;;5086121;28;20403;-47
2022/05/24 06:22:09;;;;;;;20.65;16.13;;;14.70;99.90;;;;;;5079091;28;20081;-47
2022/05/24 06:24:35;;;;;;;22.77;15.50;;;14.70;99.90;;;;;;5086784;28;20081;-46
2022/05/24 06:27:00;;;;;;;18.83;14.60;;;14.70;99.90;;;;;;5077061;28;20077;-50
2022/05/24 06:29:26;;;;;;;19.40;15.23;;;14.60;99.90;;;;;;5082618;28;20107;-46
2022/05/24 06:31:51;;;;;;;22.85;15.63;;;14.60;99.90;;;;;;5080055;28;20229;-47
2022/05/24 06:34:18;;;;;;;18.77;16.15;;;14.60;99.90;;;;;;5076713;28;20048;-46
2022/05/24 06:36:43;;;;;;;19.48;15.43;;;14.60;99.90;;;;;;5073442;28;20067;-46
2022/05/24 06:39:09;;;;;;;17.33;15.45;;;14.60;99.90;;;;;;5080636;28;20078;-47
2022/05/24 06:41:34;;;;;;;16.17;14.18;;;14.70;99.90;;;;;;5079847;28;20044;-46
2022/05/24 06:44:00;;;;;;;18.20;14.82;;;14.70;99.90;;;;;;5078409;28;20478;-47
2022/05/24 06:46:26;;;;;;;17.83;13.88;;;14.70;99.90;;;;;;5069111;28;20451;-47
2022/05/24 06:48:51;;;;;;;15.90;14.18;;;14.70;99.90;;;;;;5080351;28;20043;-47
2022/05/24 06:51:20;;;;;;;19.05;14.43;;;14.60;99.90;;;;;;5077416;28;20049;-47
2022/05/24 06:53:48;;;;;;;18.48;13.77;;;14.50;99.90;;;;;;5074015;28;20370;-46
2022/05/24 06:56:14;;;;;;;15.98;13.65;;;14.50;99.90;;;;;;5080406;28;20040;-46
2022/05/24 06:58:40;;;;;;;19.40;13.13;;;14.40;99.90;;;;;;5077257;28;20505;-48
2022/05/24 07:03:52;;;;;;;18.48;13.00;;;14.50;99.90;;;;;;5079780;28;20091;-45
2022/05/24 07:06:18;;;;;;;18.30;13.55;;;14.50;99.90;;;;;;5075089;28;20071;-47
2022/05/24 07:08:45;;;;;;;13.82;12.43;;;14.40;99.90;;;;;;5076686;28;20085;-45
2022/05/24 07:11:12;;;;;;;16.27;12.50;;;14.30;99.90;;;;;;5070648;28;20601;-46
2022/05/24 07:13:39;;;;;;;16.17;11.97;;;14.40;99.90;;;;;;5067812;28;20042;-44
2022/05/24 07:16:07;;;;;;;16.02;13.10;;;14.50;99.90;;;;;;5074294;28;20081;-44
2022/05/24 07:18:32;;;;;;;16.52;12.52;;;14.60;99.90;;;;;;5073854;28;20442;-44
2022/05/24 07:20:58;;;;;;;15.52;12.82;;;14.60;99.90;;;;;;5072884;28;20113;-45
2022/05/24 07:23:24;;;;;;;13.35;12.02;;;14.60;99.90;;;;;;5076223;28;20054;-45
2022/05/24 07:25:51;;;;;;;17.25;12.45;;;14.50;99.90;;;;;;5088788;28;20196;-47
2022/05/24 07:28:19;;;;;;;16.27;11.70;;;14.50;99.90;;;;;;5068799;28;20126;-44
2022/05/24 07:30:46;;;;;;;;;;;14.50;99.90;;;;;;5081900;28;20299;-45
2022/05/24 07:33:13;;;;;;;14.38;11.13;;;14.50;99.90;;;;;;5057708;28;20023;-45
2022/05/24 07:35:39;;;;;;;17.50;12.23;;;14.70;99.90;;;;;;5046809;28;20482;-46
2022/05/24 07:38:12;;;;;;;16.35;11.63;;;14.60;99.90;;;;;;5066445;28;20048;-45
2022/05/24 07:46:11;;;;;;;13.45;11.30;;;14.70;99.90;;;;;;5089949;28;20079;-45
2022/05/24 07:48:37;;;;;;;13.85;10.07;;;14.70;99.90;;;;;;5076662;28;20060;-45
2022/05/24 07:51:03;;;;;;;11.45;10.02;;;14.70;99.90;;;;;;5065723;28;20395;-46
2022/05/24 07:53:29;;;;;;;12.73;10.63;;;14.80;99.90;;;;;;5073125;28;20490;-44
2022/05/24 07:55:56;;;;;;;15.63;10.45;;;14.70;99.90;;;;;;5061906;28;20052;-46
2022/05/24 07:58:22;;;;;;;14.75;10.60;;;14.80;99.90;;;;;;5067284;28;20153;-45
2022/05/24 08:00:48;;;;;;;13.27;10.23;;;15.00;99.90;;;;;;5091283;28;20075;-47
2022/05/24 08:03:14;;;;;;;17.40;10.30;;;15.10;99.90;;;;;;5073603;28;20041;-45
2022/05/24 08:05:39;;;;;;;14.35;11.40;;;15.20;99.90;;;;;;5072752;28;20041;-45
2022/05/24 08:08:07;;;;;;;14.20;10.55;;;15.40;99.90;;;;;;5063325;28;20051;-45
2022/05/24 08:10:34;;;;;;;11.93;10.18;;;15.50;99.90;;;;;;5077098;28;20068;-46
2022/05/24 08:13:07;;;;;;;13.23;10.60;;;15.70;99.90;;;;;;5072490;28;20472;-47
2022/05/24 08:15:33;;;;;;;11.82;10.10;;;15.90;99.90;;;;;;5069682;28;20451;-45
2022/05/24 08:17:59;;;;;;;15.70;9.98;;;15.90;99.90;;;;;;5068729;28;20111;-44
2022/05/24 08:20:25;;;;;;;17.15;10.82;;;15.80;99.90;;;;;;5071755;28;20033;-44
2022/05/24 08:22:51;;;;;;;11.52;9.25;;;15.80;99.90;;;;;;5070755;28;20123;-46
2022/05/24 08:25:17;;;;;;;10.15;8.98;;;16.00;99.90;;;;;;5072187;28;20584;-44
2022/05/24 08:27:43;;;;;;;12.65;8.57;;;15.90;99.90;;;;;;5075311;28;20043;-45
2022/05/24 08:30:12;;;;;;;10.75;8.40;;;15.90;99.90;;;;;;5078104;28;20083;-45
2022/05/24 08:32:38;;;;;;;20.30;8.40;;;16.20;99.90;;;;;;5080012;28;20040;-45
2022/05/24 08:35:06;;;;;;;11.75;8.50;;;16.60;99.90;;;;;;5071337;28;20048;-45
2022/05/24 08:37:32;;;;;;;10.40;7.97;;;;;;;;;;5070092;28;20364;-46
2022/05/24 08:39:59;;;;;;;11.07;8.27;;;17.20;99.90;;;;;;5071257;28;20087;-45
2022/05/24 08:42:31;;;;;;;10.87;7.93;;;17.40;99.90;;;;;;5071175;28;20542;-48
2022/05/24 08:48:26;;;;;;;9.35;6.65;;;17.70;99.90;;;;;;5070340;28;20425;-45
2022/05/24 08:51:22;;;;;;;7.30;6.43;;;18.20;99.90;;;;;;5079587;28;20143;-45
2022/05/24 08:53:52;;;;;;;11.23;6.05;;;18.50;99.90;;;;;;5078861;28;20070;-45
2022/05/24 08:56:30;;;;;;;9.43;5.28;;;18.50;99.90;;;;;;5074595;28;20461;-45
2022/05/24 08:59:02;;;;;;;5.72;4.38;;;18.70;99.90;;;;;;5067172;28;20051;-44
2022/05/24 09:01:32;;;;;;;7.35;4.03;;;18.70;99.90;;;;;;5079786;28;20047;-45
2022/05/24 09:04:05;;;;;;;7.28;3.85;;;18.50;99.90;;;;;;5070096;28;20046;-44
2022/05/24 09:06:49;;;;;;;4.93;3.40;;;18.40;99.90;;;;;;5065429;28;20083;-49
2022/05/24 09:09:53;;;;;;;8.52;3.75;;;18.60;99.90;;;;;;5056233;28;20053;-49
2022/05/24 09:12:50;;;;;;;4.75;3.13;;;18.80;99.90;;;;;;5065286;28;20479;-46
2022/05/24 09:15:46;;;;;;;4.50;2.92;;;18.80;99.90;;;;;;5071138;28;20041;-45
2022/05/24 09:18:42;;;;;;;7.70;3.70;;;18.70;99.90;;;;;;5070897;28;20055;-44
2022/05/24 09:21:23;;;;;;;4.87;4.30;;;18.40;99.90;;;;;;5056710;28;20098;-44
2022/05/24 09:23:56;;;;;;;7.28;4.90;;;18.10;99.90;;;;;;5070774;28;20311;-46
2022/05/24 09:26:24;;;;;;;8.90;4.70;;;18.10;99.90;;;;;;5070868;28;20106;-46
2022/05/24 09:28:54;;;;;;;;;;;18.10;99.90;;;;;;5069234;28;20355;-44
2022/05/24 09:31:31;;;;;;;7.78;4.25;;;18.10;99.90;;;;;;5070628;28;20328;-46
2022/05/24 09:33:58;;;;;;;;;;;17.90;99.90;;;;;;5069954;28;20399;-47
2022/05/24 09:36:33;;;;;;;5.57;4.30;;;17.70;99.90;;;;;;5070561;28;20006;-45
2022/05/24 09:38:59;;;;;;;6.55;4.70;;;17.60;99.90;;;;;;5069699;28;20083;-46
2022/05/24 09:41:25;;;;;;;5.88;3.60;;;17.30;99.90;;;;;;5070958;28;20158;-47
2022/05/24 09:44:00;;;;;;;5.45;3.45;;;;;;;;;;5061626;28;20045;-46
2022/05/24 09:46:27;;;;;;;14.75;4.47;;;16.90;99.90;;;;;;5060818;28;20104;-46
2022/05/24 09:49:15;;;;;;;6.63;4.03;;;16.80;99.90;;;;;;5071079;28;20310;-46
2022/05/24 09:51:43;;;;;;;11.30;4.40;;;16.50;99.90;;;;;;5068531;28;20076;-45
2022/05/24 09:54:17;;;;;;;10.30;4.30;;;16.10;99.90;;;;;;5071250;28;20054;-45
2022/05/24 09:57:05;;;;;;;7.78;2.05;;;15.60;99.90;;;;;;5071018;28;20127;-46
2022/05/24 09:59:33;;;;;;;3.72;1.90;;;15.00;99.90;;;;;;5074396;28;20115;-45
2022/05/24 10:01:59;;;;;;;3.97;2.28;;;14.90;99.90;;;;;;5072993;28;20466;-45
2022/05/24 10:04:27;;;;;;;5.25;4.18;;;15.00;99.90;;;;;;5074325;28;20390;-45
2022/05/24 10:06:57;;;;;;;4.80;4.25;;;15.40;99.90;;;;;;5071983;28;20036;-45
2022/05/24 10:09:53;;;;;;;5.30;4.80;;;15.80;99.90;;;;;;5074192;28;20123;-47
2022/05/24 10:12:56;;;;;;;9.38;6.85;;;17.20;99.90;;;;;;5066357;28;20044;-44
2022/05/24 10:15:35;;;;;;;7.50;6.10;;;17.60;99.90;;;;;;5071865;28;20163;-47
2022/05/24 10:18:50;;;;;;;7.20;6.50;;;17.90;99.90;;;;;;5091993;28;20127;-46
2022/05/24 10:21:22;;;;;;;8.30;7.50;;;18.50;99.90;;;;;;5084271;28;20063;-44
2022/05/24 10:24:11;;;;;;;10.43;5.85;;;18.90;99.90;;;;;;5072318;28;20107;-45
2022/05/24 10:26:56;;;;;;;6.63;3.88;;;18.60;99.90;;;;;;5071546;28;20101;-47
2022/05/24 10:29:27;;;;;;;5.53;4.65;;;17.60;99.90;;;;;;5073443;28;20055;-47
2022/05/24 10:38:17;;;;;;;7.07;2.13;;;17.50;99.90;;;;;;5074405;28;20052;-45
2022/05/24 10:38:28;;;;;;;2.80;1.50;;;15.70;99.90;;;;;;5052504;28;20060;-44
2022/05/24 10:41:08;;;;;;;4.15;1.23;;;15.30;99.90;;;;;;5056067;28;20721;-45
2022/05/24 10:43:49;;;;;;;2.03;1.20;;;15.10;99.90;;;;;;5062631;28;20037;-44
2022/05/24 10:46:18;;;;;;;2.33;1.20;;;14.60;99.90;;;;;;5068474;28;20094;-46
2022/05/24 10:48:54;;;;;;;2.03;1.10;;;14.40;99.90;;;;;;5093476;28;20459;-45
2022/05/24 10:51:48;;;;;;;5.85;1.35;;;14.20;99.90;;;;;;5083575;28;20080;-45
2022/05/24 10:54:51;;;;;;;4.85;1.70;;;14.20;99.90;;;;;;5061881;28;20044;-44
2022/05/24 10:57:24;;;;;;;2.15;1.98;;;14.20;99.90;;;;;;5078468;28;20043;-46
2022/05/24 11:00:14;;;;;;;2.20;1.90;;;14.40;99.90;;;;;;5091908;28;20048;-46
2022/05/24 11:02:55;;;;;;;3.25;2.22;;;14.60;99.90;;;;;;5080932;28;20033;-46
2022/05/24 11:05:26;;;;;;;2.38;2.17;;;14.80;99.90;;;;;;5077050;28;20048;-47
2022/05/24 11:08:01;;;;;;;2.67;2.25;;;14.90;99.90;;;;;;5084893;28;20426;-46
2022/05/24 11:10:34;;;;;;;4.00;2.50;;;15.10;99.90;;;;;;5092463;28;20085;-46
2022/05/24 11:13:12;;;;;;;3.30;2.58;;;15.30;99.90;;;;;;5068865;28;20135;-44
2022/05/24 11:15:56;;;;;;;3.30;2.70;;;15.50;99.90;;;;;;5079191;28;20075;-45
2022/05/24 11:18:25;;;;;;;3.35;2.90;;;15.60;99.90;;;;;;5082157;28;20052;-49
2022/05/24 11:20:59;;;;;;;4.18;3.13;;;15.80;99.90;;;;;;5088961;28;20036;-45
2022/05/24 11:23:36;;;;;;;3.92;2.95;;;16.20;99.90;;;;;;5070308;28;20044;-45
2022/05/24 11:26:25;;;;;;;5.05;2.92;;;16.30;99.90;;;;;;5069178;28;20056;-45
2022/05/24 11:28:54;;;;;;;3.35;3.05;;;17.10;99.90;;;;;;5052620;28;20045;-48
2022/05/24 11:31:23;;;;;;;3.45;2.40;;;17.40;99.90;;;;;;5070787;28;20119;-48
2022/05/24 11:33:51;;;;;;;6.15;1.30;;;17.00;99.90;;;;;;5087081;28;20065;-48
2022/05/24 11:36:35;;;;;;;0.77;0.60;;;16.70;99.90;;;;;;5070479;28;20088;-45
2022/05/24 11:39:11;;;;;;;0.80;0.57;;;16.30;99.90;;;;;;5052512;28;20040;-46
2022/05/24 11:41:37;;;;;;;1.90;0.98;;;16.40;99.90;;;;;;5050956;28;20103;-47
2022/05/24 11:44:30;;;;;;;1.63;1.35;;;16.40;99.90;;;;;;5074710;28;20534;-46
2022/05/24 11:46:56;;;;;;;1.50;0.95;;;16.40;99.90;;;;;;5087694;28;20475;-46
2022/05/24 11:49:21;;;;;;;1.20;0.77;;;16.40;99.90;;;;;;5071878;28;20630;-46
2022/05/24 11:51:52;;;;;;;1.63;0.90;;;16.50;99.90;;;;;;5089181;28;20047;-45
2022/05/24 11:54:18;;;;;;;1.02;0.77;;;16.70;99.90;;;;;;5059140;28;20063;-46
2022/05/24 11:57:01;;;;;;;1.95;0.80;;;16.70;99.90;;;;;;5070458;28;20041;-44
2022/05/24 11:59:47;;;;;;;2.72;1.30;;;16.80;99.90;;;;;;5089969;28;20112;-44
2022/05/24 12:02:23;;;;;;;1.42;1.20;;;16.50;99.90;;;;;;5088194;28;20403;-48
2022/05/24 12:08:22;;;;;;;3.05;2.30;;;16.00;99.90;;;;;;5058760;28;20051;-46
2022/05/24 12:11:06;;;;;;;6.68;3.28;;;16.20;99.90;;;;;;5069781;28;20036;-45
2022/05/24 12:13:40;;;;;;;2.85;2.05;;;16.60;99.90;;;;;;5068195;28;20498;-46
2022/05/24 12:16:40;;;;;;;4.05;1.63;;;16.60;99.90;;;;;;5075984;28;20051;-47
2022/05/24 12:19:10;;;;;;;2.13;1.73;;;16.60;99.90;;;;;;5080155;28;20104;-46
2022/05/24 12:21:43;;;;;;;2.13;1.52;;;16.30;99.90;;;;;;5085428;28;20444;-46
2022/05/24 12:24:30;;;;;;;1.70;1.60;;;16.00;99.90;;;;;;5082266;28;20059;-47
2022/05/24 12:27:08;;;;;;;;;;;15.70;99.90;;;;;;5070905;28;20123;-47
2022/05/24 12:29:34;;;;;;;3.35;2.35;;;15.30;99.90;;;;;;5070760;28;20347;-46
2022/05/24 12:32:04;;;;;;;3.13;2.10;;;15.20;99.90;;;;;;5091871;28;20390;-50
2022/05/24 12:34:32;;;;;;;4.22;2.50;;;15.10;99.90;;;;;;5086552;28;20048;-47
2022/05/24 12:37:00;;;;;;;6.32;2.90;;;15.00;99.90;;;;;;5061726;28;20054;-46
2022/05/24 12:39:26;;;;;;;2.97;2.65;;;14.80;99.90;;;;;;5073520;28;20357;-45
2022/05/24 12:41:58;;;;;;;2.53;2.33;;;14.80;99.90;;;;;;5088682;28;20101;-46
2022/05/24 12:44:23;;;;;;;2.63;2.40;;;14.70;99.90;;;;;;5055782;28;20048;-47
2022/05/24 12:47:12;;;;;;;5.13;1.90;;;14.80;99.90;;;;;;5070937;28;20037;-46
2022/05/24 12:49:56;;;;;;;2.42;2.05;;;14.80;99.90;;;;;;5072053;28;20123;-46
2022/05/24 12:52:30;;;;;;;3.75;2.50;;;15.00;99.90;;;;;;5091257;28;20044;-49
2022/05/24 12:55:05;;;;;;;2.75;2.20;;;15.10;99.90;;;;;;5084330;28;20135;-46
2022/05/24 12:57:37;;;;;;;4.78;2.47;;;15.10;99.90;;;;;;5072197;28;20056;-48
2022/05/24 13:00:18;;;;;;;3.10;2.40;;;15.30;99.90;;;;;;5069895;28;20062;-46
2022/05/24 13:02:50;;;;;;;2.60;2.33;;;15.50;99.90;;;;;;5077682;28;20067;-46
2022/05/24 13:05:23;;;;;;;2.67;2.47;;;15.70;99.90;;;;;;5064256;28;20490;-46
2022/05/24 13:07:51;;;;;;;6.65;2.70;;;15.90;99.90;;;;;;5082735;28;20081;-46
2022/05/24 13:10:20;;;;;;;2.70;2.30;;;16.00;99.90;;;;;;5080590;28;20048;-48
2022/05/24 13:12:48;;;;;;;2.97;2.38;;;16.10;99.90;;;;;;5066911;28;20048;-46
2022/05/24 13:15:18;;;;;;;2.65;2.10;;;16.60;99.90;;;;;;5075774;28;20051;-47
2022/05/24 13:17:47;;;;;;;2.58;2.22;;;17.10;99.90;;;;;;5084242;28;20477;-46
2022/05/24 13:20:19;;;;;;;4.65;2.65;;;17.30;99.90;;;;;;5076575;28;20324;-46
2022/05/24 13:22:54;;;;;;;2.83;2.50;;;17.50;99.90;;;;;;5078956;28;20044;-46
2022/05/24 13:25:29;;;;;;;4.80;2.70;;;17.20;99.90;;;;;;5088007;28;20409;-47
2022/05/24 13:28:00;;;;;;;3.30;2.33;;;17.00;99.90;;;;;;5079755;28;20409;-47
2022/05/24 13:33:50;;;;;;;3.25;2.85;;;16.90;99.90;;;;;;5091831;28;20047;-49
2022/05/24 13:36:28;;;;;;;3.35;2.90;;;17.00;99.90;;;;;;5092711;28;20052;-46
2022/05/24 13:39:02;;;;;;;4.05;3.10;;;17.50;99.90;;;;;;5092688;28;20598;-46
2022/05/24 13:41:37;;;;;;;3.58;3.28;;;18.10;99.90;;;;;;5091033;28;20052;-47
2022/05/24 13:44:22;;;;;;;3.47;3.20;;;18.20;99.90;;;;;;5102039;28;20032;-44